Nearby METAR Reports

 

KEDC - Austin Exec, Texas, USA
Distance from station: SW 16mi, 25km
Updated: Sun, 29-Mar-2020 6:55pm CDT
Mostly cloudy
Mostly cloudy
 Wind from ESE
Wind: ESE 8 mph , 13 km/h
Temperature: 72°F , 22°C
Dew Point: 45°F , 7°C
Humidity: 38%
Barometer: 30.10 inHg , 1019.3 hPa
Clouds: Mostly cloudy
Visibility: 10 miles , 16 km
Cloud details: Mostly cloudy 8000 ft
Mostly cloudy 11000 ft
2020/03/29 23:55 KEDC 292355Z AUTO 12007KT 10SM BKN080 BKN110 22/07 A3010 RMK AO2
KGTU - Georgetown, Texas, USA
Distance from station: WNW 17mi, 28km
Updated: Sun, 29-Mar-2020 6:56pm CDT
Mostly cloudy
Mostly cloudy
 Wind from E
Wind: E 7 mph , 11 km/h
Temperature: 72°F , 22°C
Dew Point: 41°F , 5°C
Humidity: 33%
Barometer: 30.12 inHg , 1020 hPa
Clouds: Mostly cloudy
Visibility: 10 miles , 16 km
Cloud details: Mostly cloudy 8500 ft
Mostly cloudy 11000 ft
2020/03/29 23:56 KGTU 292356Z 09006KT 10SM BKN085 BKN110 22/05 A3012 RMK AO2 SLP199 T02220050 10256 20222 55000
 
KATT - Austin/Mabry, Texas, USA
Distance from station: SW 28mi, 45km
Updated: Sun, 29-Mar-2020 6:51pm CDT
Overcast
Overcast
 Wind from ESE
Wind: ESE 9 mph , 15 km/h
Temperature: 73°F , 23°C
Dew Point: 43°F , 6°C
Humidity: 33%
Barometer: 30.09 inHg , 1019 hPa
Clouds: Overcast
Visibility: 10 miles , 16 km
Cloud details: Overcast 8000 ft
2020/03/29 23:51 KATT 292351Z AUTO 11008KT 10SM OVC080 23/06 A3009 RMK AO2 SLP184 T02330056 10272 20233 55002
KAUS - Austin, Texas, USA
Distance from station: SSW 32mi, 51km
Updated: Sun, 29-Mar-2020 6:53pm CDT
Overcast
Overcast
 Wind from ENE
Wind: ENE 6 mph , 9 km/h
Temperature: 70°F , 21°C
Dew Point: 55°F , 13°C
Humidity: 60%
Barometer: 30.07 inHg , 1018.3 hPa
Clouds: Overcast
Visibility: 10 miles , 16 km
Cloud details: Mostly cloudy 8500 ft
Overcast 20000 ft
2020/03/29 23:53 KAUS 292353Z 07005KT 10SM BKN085 OVC200 21/13 A3007 RMK AO2 RAB03E22 SLP181 P0000 60000 T02110128 10261 20211 55001
 
KRYW - Lago Vista, Texas, USA
Distance from station: W 33mi, 54km
Updated: Sun, 29-Mar-2020 6:55pm CDT
Overcast
Overcast
 Wind from E
Wind: E 5 mph , 7 km/h
Temperature: 72°F , 22°C
Dew Point: 41°F , 5°C
Humidity: 33%
Barometer: 30.11 inHg , 1019.6 hPa
Clouds: Overcast
Visibility: 10 miles , 16 km
Cloud details: Mostly cloudy 8000 ft
Mostly cloudy 9000 ft
Overcast 11000 ft
2020/03/29 23:55 KRYW 292355Z AUTO 10004KT 10SM BKN080 BKN090 OVC110 22/05 A3011 RMK AO2 T02150053 10243 20215
KILE - Killeen Muni, Texas, USA
Distance from station: NNW 37mi, 59km
Updated: Sun, 29-Mar-2020 6:56pm CDT
Mostly cloudy
Mostly cloudy
 Wind from ESE
Wind: ESE 9 mph , 15 km/h
Temperature: 70°F , 21°C
Dew Point: 48°F , 9°C
Humidity: 46%
Barometer: 30.11 inHg , 1019.6 hPa
Clouds: Mostly cloudy
Visibility: 10 miles , 16 km
Cloud details: Mostly cloudy 9500 ft
Mostly cloudy 11000 ft
2020/03/29 23:56 KILE 292356Z AUTO 11008KT 10SM BKN095 BKN110 21/09 A3011 RMK AO2 SLP186 T02110094 10250 20211 55001
 
KTPL - Temple/Miller, Texas, USA
Distance from station: N 38mi, 61km
Updated: Sun, 29-Mar-2020 6:51pm CDT
Overcast
Overcast
 Wind from NE
Wind: NE 6 mph , 9 km/h
Temperature: 70°F , 21°C
Dew Point: 54°F , 12°C
Humidity: 57%
Barometer: 30.11 inHg , 1019.6 hPa
Clouds: Overcast
Visibility: 10 miles , 16 km
Cloud details: Overcast 10000 ft
2020/03/29 23:51 KTPL 292351Z AUTO 05005KT 10SM OVC100 21/12 A3011 RMK AO2 SLP191 T02060117 10244 20206 53003
KGYB - Giddings-Lee, Texas, USA
Distance from station: SE 39mi, 62km
Updated: Sun, 29-Mar-2020 6:55pm CDT
Mostly cloudy
Mostly cloudy
 Wind from calm
Wind: Calm
Temperature: 73°F , 23°C
Dew Point: 50°F , 10°C
Humidity: 44%
Barometer: 30.09 inHg , 1019 hPa
Clouds: Mostly cloudy
Visibility: 10 miles , 16 km
Cloud details: Mostly cloudy 8000 ft
2020/03/29 23:55 KGYB 292355Z AUTO 00000KT 10SM BKN080 23/10 A3009 RMK AO2 T02320099 10257 20232
 
KGRK - Gray/Ft Hood, Texas, USA
Distance from station: NW 42mi, 67km
Updated: Sun, 29-Mar-2020 6:58pm CDT
Mostly cloudy
Mostly cloudy
 Wind from E
Wind: E 9 mph , 15 km/h
Temperature: 70°F , 21°C
Dew Point: 45°F , 7°C
Humidity: 40%
Barometer: 30.09 inHg , 1019 hPa
Clouds: Mostly cloudy
Visibility: 7 miles , 11 km
Cloud details: Mostly cloudy 9000 ft
2020/03/29 23:58 KGRK 292358Z 10008KT 7SM BKN090 21/07 A3009 RMK AO2A SLP186 P0000 60000 T02100066 10241 20210 58001
KHLR - Ft Hood/Killeen, Texas, USA
Distance from station: NNW 42mi, 67km
Updated: Sun, 29-Mar-2020 6:58pm CDT
Clear
Clear
 Wind from ESE
Wind: ESE 9 mph , 15 km/h
Temperature: 70°F , 21°C
Dew Point: 46°F , 8°C
Humidity: 43%
Barometer: 30.10 inHg , 1019.3 hPa
Clouds: Clear
Visibility: 10 miles , 16 km
2020/03/29 23:58 KHLR 292358Z AUTO 11008KT 10SM CLR 21/08 A3010 RMK AO2 SLP188 T02140084 10246 20214 50000
 
KRWV - Caldwell, Texas, USA
Distance from station: E 43mi, 69km
Updated: Sun, 29-Mar-2020 6:50pm CDT
Overcast
Overcast
 Wind from ESE
Wind: ESE 3 mph , 6 km/h
Temperature: 72°F , 22°C
Dew Point: 52°F , 11°C
Humidity: 50%
Barometer: 30.10 inHg , 1019.3 hPa
Clouds: Overcast
Visibility: 10 miles , 16 km
Cloud details: Overcast 10000 ft
2020/03/29 23:50 KRWV 292350Z AUTO 11003KT 10SM OVC100 22/11 A3010 RMK AO2 LTG DSNT S AND SW T02160108 10246 20215 402460079
KBMQ - Burnet, Texas, USA
Distance from station: WNW 50mi, 80km
Updated: Sun, 29-Mar-2020 6:53pm CDT
Overcast
Overcast
 Wind from E
Wind: E 8 mph , 13 km/h
Temperature: 70°F , 21°C
Dew Point: 41°F , 5°C
Humidity: 35%
Barometer: 30.11 inHg , 1019.6 hPa
Clouds: Overcast
Visibility: 10 miles , 16 km
Cloud details: Overcast 8000 ft
2020/03/29 23:53 KBMQ 292353Z AUTO 09007KT 10SM OVC080 21/05 A3011 RMK AO2 SLP187 T02110050 10233 20211 56004 $